Time;durP1;ratioP1;P1;durP2;ratioP2;P2;SDS_P1;SDS_P2;PMS_P1;PMS_P2;Temp;Humidity;BMP_temperature;BMP_pressure;BME280_temperature;BME280_humidity;BME280_pressure;Samples;Min_cycle;Max_cycle;Signal;HPM_P1;HPM_P2
2023/04/03 00:02:01;;;;;;;6.37;2.20;;;2.00;99.90;;;;;;5074448;28;20978;-71
2023/04/03 00:04:28;;;;;;;6.37;2.00;;;2.00;99.90;;;;;;5074740;28;20492;-71
2023/04/03 00:06:56;;;;;;;3.20;2.07;;;1.90;99.90;;;;;;5074159;28;20453;-71
2023/04/03 00:09:23;;;;;;;4.63;2.37;;;1.90;99.90;;;;;;5074289;28;20541;-71
2023/04/03 00:11:50;;;;;;;6.70;2.43;;;1.90;99.90;;;;;;5074206;28;20825;-71
2023/04/03 00:14:17;;;;;;;3.70;1.90;;;1.90;99.90;;;;;;5074512;28;20976;-71
2023/04/03 00:16:44;;;;;;;5.80;2.40;;;1.90;99.90;;;;;;5074430;28;20930;-71
2023/04/03 00:19:12;;;;;;;6.10;2.10;;;1.90;99.90;;;;;;5074375;28;20915;-71
2023/04/03 00:21:39;;;;;;;4.90;2.20;;;1.90;99.90;;;;;;5074413;28;20493;-71
2023/04/03 00:24:08;;;;;;;4.53;2.00;;;1.80;99.90;;;;;;5074950;28;20569;-71
2023/04/03 00:26:35;;;;;;;5.57;2.33;;;1.80;99.90;;;;;;5074471;28;20872;-71
2023/04/03 00:29:02;;;;;;;6.43;2.57;;;1.80;99.90;;;;;;5074027;28;20455;-71
2023/04/03 00:31:29;;;;;;;2.10;1.80;;;1.80;99.90;;;;;;5074356;28;20454;-71
2023/04/03 00:33:56;;;;;;;3.07;1.90;;;1.80;99.90;;;;;;5074118;28;20485;-71
2023/04/03 00:36:22;;;;;;;5.80;2.30;;;1.80;99.90;;;;;;5074225;28;20454;-71
2023/04/03 00:38:49;;;;;;;5.97;2.80;;;1.80;99.90;;;;;;5073756;28;20505;-70
2023/04/03 00:41:18;;;;;;;7.80;2.90;;;1.80;99.90;;;;;;5074061;28;20527;-70
2023/04/03 00:43:44;;;;;;;4.13;2.23;;;1.70;99.90;;;;;;5073793;28;20474;-72
2023/04/03 00:46:11;;;;;;;3.40;2.10;;;1.70;99.90;;;;;;5073744;28;20472;-71
2023/04/03 00:48:41;;;;;;;4.67;2.43;;;1.70;99.90;;;;;;5074461;28;20454;-71
2023/04/03 00:51:13;;;;;;;5.47;2.10;;;1.70;99.90;;;;;;5073829;28;20549;-71
2023/04/03 00:53:43;;;;;;;5.53;2.17;;;1.70;99.90;;;;;;5074046;28;20929;-71
2023/04/03 00:56:15;;;;;;;4.83;2.10;;;1.70;99.90;;;;;;5074143;28;20439;-71
2023/04/03 00:58:47;;;;;;;5.20;2.30;;;1.70;99.90;;;;;;5073750;28;20438;-71
2023/04/03 01:01:18;;;;;;;5.33;2.30;;;1.70;99.90;;;;;;5073990;28;20462;-71
2023/04/03 01:03:45;;;;;;;4.13;1.83;;;1.70;99.90;;;;;;5074286;28;20573;-71
2023/04/03 01:06:13;;;;;;;7.13;1.87;;;1.70;99.90;;;;;;5077791;28;20458;-70
2023/04/03 01:08:39;;;;;;;3.60;1.70;;;1.70;99.90;;;;;;5077628;28;20454;-72
2023/04/03 01:11:06;;;;;;;2.70;1.80;;;1.70;99.90;;;;;;5077414;28;20460;-72
2023/04/03 01:13:34;;;;;;;3.50;1.70;;;1.60;99.90;;;;;;5077338;28;20496;-72
2023/04/03 01:16:04;;;;;;;6.23;1.93;;;1.70;99.90;;;;;;5077515;28;20545;-72
2023/04/03 01:18:33;;;;;;;3.73;1.97;;;1.60;99.90;;;;;;5077379;28;20867;-72
2023/04/03 01:21:31;;;;;;;3.57;2.00;;;1.60;99.90;;;;;;5077585;28;20541;-72
2023/04/03 01:24:26;;;;;;;6.90;2.70;;;1.50;99.90;;;;;;5052041;28;20561;-71
2023/04/03 01:26:53;;;;;;;4.30;2.20;;;1.50;99.90;;;;;;5077607;28;20454;-71
2023/04/03 01:29:20;;;;;;;5.00;2.30;;;1.40;99.90;;;;;;5077669;28;20497;-71
2023/04/03 01:31:54;;;;;;;4.90;2.30;;;1.40;99.90;;;;;;5077051;28;20545;-71
2023/04/03 01:34:22;;;;;;;4.80;2.10;;;1.30;99.90;;;;;;5077281;28;20453;-71
2023/04/03 01:36:49;;;;;;;5.00;1.93;;;1.30;99.90;;;;;;5077408;28;20454;-70
2023/04/03 01:39:15;;;;;;;4.87;2.20;;;1.30;99.90;;;;;;5077447;28;20454;-71
2023/04/03 01:41:42;;;;;;;10.27;2.60;;;1.30;99.90;;;;;;5077272;28;20787;-71
2023/04/03 01:44:10;;;;;;;5.17;2.30;;;1.20;99.90;;;;;;5077499;28;20807;-71
2023/04/03 01:46:37;;;;;;;3.10;1.87;;;1.20;99.90;;;;;;5077065;28;20579;-71
2023/04/03 01:49:06;;;;;;;6.57;2.53;;;1.20;99.90;;;;;;5077168;28;20938;-72
2023/04/03 01:51:32;;;;;;;6.03;2.00;;;1.20;99.90;;;;;;5076805;28;20556;-72
2023/04/03 01:53:59;;;;;;;2.33;2.10;;;1.20;99.90;;;;;;5077611;28;20818;-72
2023/04/03 01:56:26;;;;;;;6.77;2.50;;;1.10;99.90;;;;;;5076942;28;20540;-70
2023/04/03 01:58:53;;;;;;;5.70;2.47;;;1.10;99.90;;;;;;5076887;28;20532;-72
2023/04/03 02:01:21;;;;;;;5.93;2.20;;;1.10;99.90;;;;;;5076830;28;20490;-72
2023/04/03 02:03:48;;;;;;;2.63;1.73;;;1.00;99.90;;;;;;5076349;28;20494;-72
2023/04/03 02:06:16;;;;;;;5.07;2.10;;;1.00;99.90;;;;;;5077019;28;20458;-72
2023/04/03 02:08:42;;;;;;;2.33;1.60;;;1.00;99.90;;;;;;5076794;28;20894;-73
2023/04/03 02:11:09;;;;;;;4.93;2.37;;;1.00;99.90;;;;;;5076844;28;20984;-72
2023/04/03 02:13:36;;;;;;;3.33;1.90;;;1.00;99.90;;;;;;5076527;28;20767;-71
2023/04/03 02:16:09;;;;;;;3.47;1.80;;;1.00;99.90;;;;;;5075649;28;20828;-71
2023/04/03 02:18:36;;;;;;;3.13;2.30;;;0.90;99.90;;;;;;5076744;28;20772;-71
2023/04/03 02:21:03;;;;;;;5.20;2.20;;;0.90;99.90;;;;;;5076279;28;20541;-71
2023/04/03 02:23:32;;;;;;;5.93;2.50;;;0.90;99.90;;;;;;5076597;28;20556;-71
2023/04/03 02:26:07;;;;;;;3.57;2.10;;;0.90;99.90;;;;;;5076599;28;20939;-71
2023/04/03 02:28:34;;;;;;;7.10;2.23;;;0.80;99.90;;;;;;5076187;28;20484;-71
2023/04/03 02:31:01;;;;;;;7.17;2.40;;;0.80;99.90;;;;;;5076387;28;20508;-71
2023/04/03 02:33:28;;;;;;;4.33;2.50;;;0.80;99.90;;;;;;5076466;28;20493;-71
2023/04/03 02:35:56;;;;;;;4.70;2.30;;;0.80;99.90;;;;;;5076134;28;20537;-71
2023/04/03 02:38:23;;;;;;;4.10;2.20;;;0.70;99.90;;;;;;5076239;28;20454;-72
2023/04/03 02:40:52;;;;;;;3.10;2.17;;;0.70;99.90;;;;;;5075996;28;20791;-72
2023/04/03 02:43:19;;;;;;;4.77;2.00;;;0.70;99.90;;;;;;5076075;28;20549;-72
2023/04/03 02:45:46;;;;;;;7.00;2.20;;;0.70;99.90;;;;;;5075840;28;20565;-72
2023/04/03 02:48:14;;;;;;;2.57;1.60;;;0.70;99.90;;;;;;5076230;28;20459;-72
2023/04/03 02:50:41;;;;;;;8.17;2.30;;;0.70;99.90;;;;;;5076280;28;20460;-72
2023/04/03 02:53:08;;;;;;;5.40;2.57;;;0.70;99.90;;;;;;5075667;28;20554;-71
2023/04/03 02:55:35;;;;;;;5.03;2.20;;;0.70;99.90;;;;;;5075451;28;20458;-71
2023/04/03 02:58:03;;;;;;;3.40;2.13;;;0.70;99.90;;;;;;5076120;28;20461;-71
2023/04/03 03:00:30;;;;;;;5.23;2.50;;;0.70;99.90;;;;;;5076142;28;20466;-71
2023/04/03 03:02:57;;;;;;;4.50;2.63;;;0.70;99.90;;;;;;5075627;28;20569;-71
2023/04/03 03:05:24;;;;;;;4.13;2.40;;;0.60;99.90;;;;;;5075645;28;20482;-71
2023/04/03 03:07:51;;;;;;;5.10;2.60;;;0.60;99.90;;;;;;5075350;28;20461;-71
2023/04/03 03:10:18;;;;;;;6.50;2.40;;;0.60;99.90;;;;;;5075558;28;20450;-70
2023/04/03 03:12:45;;;;;;;3.83;2.10;;;0.60;99.90;;;;;;5075706;28;20477;-72
2023/04/03 03:15:13;;;;;;;9.07;2.30;;;0.60;99.90;;;;;;5075246;28;20542;-72
2023/04/03 03:17:40;;;;;;;5.63;2.43;;;0.50;99.90;;;;;;5075481;28;20462;-71
2023/04/03 03:20:08;;;;;;;6.20;3.80;;;0.60;99.90;;;;;;5075531;28;20929;-72
2023/04/03 03:22:35;;;;;;;7.90;2.43;;;0.50;99.90;;;;;;5075539;28;20843;-71
2023/04/03 03:25:03;;;;;;;3.37;2.23;;;0.50;99.90;;;;;;5075046;28;20473;-71
2023/04/03 03:27:30;;;;;;;2.60;2.00;;;0.50;99.90;;;;;;5074996;28;20553;-72
2023/04/03 03:29:56;;;;;;;2.50;1.73;;;0.50;99.90;;;;;;5075197;28;20553;-71
2023/04/03 03:32:25;;;;;;;3.83;2.40;;;0.40;99.90;;;;;;5074963;28;20553;-72
2023/04/03 03:34:52;;;;;;;5.20;2.17;;;0.40;99.90;;;;;;5075218;28;20482;-71
2023/04/03 03:37:18;;;;;;;2.50;1.87;;;0.50;99.90;;;;;;5074972;28;20450;-72
2023/04/03 03:39:45;;;;;;;5.87;4.30;;;0.40;99.90;;;;;;5075301;28;20454;-71
2023/04/03 03:42:12;;;;;;;5.00;2.40;;;0.50;99.90;;;;;;5074924;28;20501;-71
2023/04/03 03:44:39;;;;;;;5.37;2.27;;;0.50;99.90;;;;;;5075097;28;20497;-71
2023/04/03 03:47:06;;;;;;;3.27;2.27;;;0.40;99.90;;;;;;5075162;28;20802;-72
2023/04/03 03:49:35;;;;;;;6.00;1.80;;;0.40;99.90;;;;;;5074765;28;20469;-71
2023/04/03 03:52:01;;;;;;;2.37;2.00;;;0.40;99.90;;;;;;5075202;28;20803;-71
2023/04/03 03:54:28;;;;;;;6.50;2.93;;;0.40;99.90;;;;;;5075231;28;20852;-71
2023/04/03 03:56:55;;;;;;;9.33;2.70;;;0.40;99.90;;;;;;5075617;28;20454;-71
2023/04/03 03:59:22;;;;;;;5.00;2.33;;;0.40;99.90;;;;;;5075299;28;20545;-71
2023/04/03 04:01:49;;;;;;;15.63;2.80;;;0.50;99.90;;;;;;5074625;28;20790;-71
2023/04/03 04:04:16;;;;;;;6.57;2.40;;;0.50;99.90;;;;;;5074750;28;20539;-72
2023/04/03 04:06:44;;;;;;;6.40;2.50;;;0.40;99.90;;;;;;5074727;28;20965;-72
2023/04/03 04:09:11;;;;;;;3.50;2.37;;;0.40;99.90;;;;;;5074491;28;20462;-72
2023/04/03 04:11:39;;;;;;;6.27;2.10;;;0.40;99.90;;;;;;5074345;28;20552;-71
2023/04/03 04:14:06;;;;;;;3.53;2.23;;;0.30;99.90;;;;;;5074625;28;20468;-71
2023/04/03 04:16:33;;;;;;;2.50;2.30;;;0.30;99.90;;;;;;5074196;28;20457;-72
2023/04/03 04:19:00;;;;;;;4.03;2.60;;;0.30;99.90;;;;;;5074490;28;20798;-70
2023/04/03 04:21:27;;;;;;;11.37;2.40;;;0.30;99.90;;;;;;5074583;28;20469;-71
2023/04/03 04:23:55;;;;;;;5.30;2.40;;;0.30;99.90;;;;;;5074505;28;20549;-70
2023/04/03 04:26:22;;;;;;;5.30;2.33;;;0.30;99.90;;;;;;5074612;28;20545;-72
2023/04/03 04:28:49;;;;;;;9.23;3.17;;;0.30;99.90;;;;;;5074125;28;20505;-72
2023/04/03 04:31:16;;;;;;;5.10;2.30;;;0.30;99.90;;;;;;5074365;28;20794;-72
2023/04/03 04:33:42;;;;;;;7.53;2.40;;;0.30;99.90;;;;;;5074586;28;20474;-71
2023/04/03 04:36:09;;;;;;;8.30;2.80;;;0.30;99.90;;;;;;5074597;28;20451;-72
2023/04/03 04:38:36;;;;;;;2.80;2.13;;;0.30;99.90;;;;;;5074398;28;20541;-71
2023/04/03 04:41:05;;;;;;;10.30;2.80;;;0.30;99.90;;;;;;5078384;28;20549;-71
2023/04/03 04:43:32;;;;;;;10.70;2.77;;;0.30;99.90;;;;;;5078766;28;20464;-72
2023/04/03 04:46:03;;;;;;;5.50;3.63;;;0.30;99.90;;;;;;5079568;28;20488;-70
2023/04/03 04:48:30;;;;;;;12.23;2.63;;;0.30;99.90;;;;;;5078559;28;20464;-72
2023/04/03 04:50:57;;;;;;;55.23;32.77;;;0.20;99.90;;;;;;5078598;28;20454;-72
2023/04/03 04:53:23;;;;;;;12.13;4.90;;;0.20;99.90;;;;;;5079426;28;20555;-72
2023/04/03 04:55:51;;;;;;;6.00;2.07;;;0.20;99.90;;;;;;5079034;28;20454;-72
2023/04/03 04:58:20;;;;;;;3.43;2.60;;;0.20;99.90;;;;;;5078818;28;20857;-72
2023/04/03 05:00:47;;;;;;;5.63;2.77;;;0.20;99.90;;;;;;5078138;28;20454;-72
2023/04/03 05:03:14;;;;;;;8.40;2.73;;;0.20;99.90;;;;;;5078279;28;20544;-71
2023/04/03 05:05:41;;;;;;;3.73;2.17;;;0.20;99.90;;;;;;5078059;28;20482;-71
2023/04/03 05:08:08;;;;;;;8.37;2.80;;;0.20;99.90;;;;;;5078270;28;20458;-71
2023/04/03 05:10:35;;;;;;;10.73;4.80;;;0.20;99.90;;;;;;5078195;28;20488;-71
2023/04/03 05:13:02;;;;;;;6.00;3.87;;;0.30;99.90;;;;;;5079271;28;20462;-72
2023/04/03 05:15:31;;;;;;;7.40;2.80;;;0.30;99.90;;;;;;5078540;28;20450;-72
2023/04/03 05:17:57;;;;;;;5.70;2.90;;;0.30;99.90;;;;;;5077946;28;20458;-71
2023/04/03 05:20:25;;;;;;;7.70;2.23;;;0.30;99.90;;;;;;5077944;28;20486;-71
2023/04/03 05:22:54;;;;;;;10.10;4.40;;;0.30;99.90;;;;;;5078245;28;20453;-73
2023/04/03 05:25:21;;;;;;;5.10;3.10;;;0.30;99.90;;;;;;5077787;28;21031;-71
2023/04/03 05:27:48;;;;;;;4.97;2.37;;;0.40;99.90;;;;;;5078625;28;20625;-70
2023/04/03 05:30:15;;;;;;;4.03;2.30;;;0.40;99.90;;;;;;5077700;28;20541;-73
2023/04/03 05:32:44;;;;;;;4.23;2.20;;;0.40;99.90;;;;;;5078020;28;20454;-70
2023/04/03 05:35:11;;;;;;;5.20;2.97;;;0.40;99.90;;;;;;5077694;28;20450;-72
2023/04/03 05:37:39;;;;;;;24.73;11.40;;;0.40;99.90;;;;;;5077489;28;20462;-70
2023/04/03 05:40:08;;;;;;;9.33;2.67;;;0.40;99.90;;;;;;5077893;28;20553;-71
2023/04/03 05:42:35;;;;;;;6.50;3.13;;;0.40;99.90;;;;;;5077840;28;20927;-70
2023/04/03 05:45:02;;;;;;;7.37;2.70;;;0.50;99.90;;;;;;5077991;28;20478;-70
2023/04/03 05:47:29;;;;;;;4.00;2.60;;;0.50;99.90;;;;;;5077057;28;20515;-71
2023/04/03 05:49:57;;;;;;;2.80;1.77;;;0.50;99.90;;;;;;5077553;28;20523;-71
2023/04/03 05:52:27;;;;;;;10.00;2.40;;;0.60;99.90;;;;;;5076225;28;20550;-72
2023/04/03 05:54:54;;;;;;;7.00;2.67;;;0.60;99.90;;;;;;5077950;28;20458;-72
2023/04/03 05:57:21;;;;;;;6.83;2.53;;;0.60;99.90;;;;;;5077299;28;20482;-72
2023/04/03 05:59:48;;;;;;;3.93;2.10;;;0.70;99.90;;;;;;5076831;28;20461;-71
2023/04/03 06:02:17;;;;;;;7.37;2.50;;;0.70;99.90;;;;;;5077112;28;20875;-72
2023/04/03 06:04:45;;;;;;;5.33;2.10;;;0.70;99.90;;;;;;5076971;28;20529;-71
2023/04/03 06:07:15;;;;;;;3.87;2.13;;;0.80;99.90;;;;;;5077423;28;20545;-71
2023/04/03 06:09:46;;;;;;;3.30;2.43;;;0.80;99.90;;;;;;5077031;28;20529;-72
2023/04/03 06:12:16;;;;;;;4.27;2.10;;;0.80;99.90;;;;;;5077073;28;20452;-72
2023/04/03 06:14:42;;;;;;;11.47;3.13;;;0.90;99.90;;;;;;5076872;28;20450;-70
2023/04/03 06:17:11;;;;;;;3.90;2.20;;;0.90;99.90;;;;;;5077057;28;20454;-71
2023/04/03 06:19:38;;;;;;;3.07;2.27;;;1.00;99.90;;;;;;5077355;28;20454;-71
2023/04/03 06:22:05;;;;;;;3.63;1.80;;;1.00;99.90;;;;;;5076903;28;20795;-71
2023/04/03 06:24:35;;;;;;;5.70;2.87;;;1.10;99.90;;;;;;5076773;28;20529;-71
2023/04/03 06:27:02;;;;;;;7.93;4.30;;;1.20;99.90;;;;;;5077092;28;20460;-71
2023/04/03 06:29:29;;;;;;;7.93;2.87;;;1.30;99.90;;;;;;5077163;28;20455;-71
2023/04/03 06:31:56;;;;;;;4.07;2.17;;;1.30;99.90;;;;;;5076918;28;20938;-72
2023/04/03 06:34:23;;;;;;;5.30;1.90;;;1.30;99.90;;;;;;5077184;28;20458;-71
2023/04/03 06:36:50;;;;;;;4.00;2.13;;;1.40;99.90;;;;;;5076682;28;20465;-70
2023/04/03 06:39:21;;;;;;;5.43;2.37;;;1.40;99.90;;;;;;5076324;28;20466;-72
2023/04/03 06:41:50;;;;;;;4.20;2.23;;;1.50;99.90;;;;;;5076443;28;20454;-71
2023/04/03 06:44:17;;;;;;;4.73;2.30;;;1.50;99.90;;;;;;5076110;28;20454;-70
2023/04/03 06:46:46;;;;;;;5.27;3.00;;;1.60;99.90;;;;;;5075950;28;20496;-72
2023/04/03 06:49:13;;;;;;;5.67;2.90;;;1.70;99.90;;;;;;5076232;28;20458;-71
2023/04/03 06:51:40;;;;;;;6.60;2.10;;;1.70;99.90;;;;;;5076313;28;20757;-71
2023/04/03 06:54:08;;;;;;;4.97;2.87;;;1.80;99.90;;;;;;5076217;28;20462;-70
2023/04/03 06:56:35;;;;;;;4.50;3.00;;;1.90;99.90;;;;;;5075744;28;20454;-72
2023/04/03 06:59:04;;;;;;;8.40;2.63;;;1.90;99.90;;;;;;5075504;28;20519;-71
2023/04/03 07:01:31;;;;;;;3.90;2.40;;;2.00;99.90;;;;;;5075637;28;20454;-72
2023/04/03 07:03:58;;;;;;;5.73;3.03;;;2.00;99.90;;;;;;5075827;28;20450;-72
2023/04/03 07:06:26;;;;;;;2.57;2.00;;;2.10;99.90;;;;;;5076071;28;20478;-71
2023/04/03 07:08:54;;;;;;;8.87;4.27;;;2.10;99.90;;;;;;5076781;28;20465;-70
2023/04/03 07:11:21;;;;;;;11.00;6.63;;;2.20;99.90;;;;;;5076284;28;20782;-71
2023/04/03 07:13:48;;;;;;;4.67;2.37;;;2.30;99.90;;;;;;5075905;28;20450;-71
2023/04/03 07:16:16;;;;;;;2.07;1.60;;;2.40;99.90;;;;;;5075781;28;20508;-70
2023/04/03 07:18:43;;;;;;;4.47;2.20;;;2.50;99.90;;;;;;5075548;28;20546;-72
2023/04/03 07:21:10;;;;;;;4.97;2.60;;;2.60;99.90;;;;;;5075709;28;20485;-70
2023/04/03 07:23:37;;;;;;;5.33;3.20;;;2.80;99.90;;;;;;5075514;28;20453;-71
2023/04/03 07:26:04;;;;;;;4.17;1.83;;;2.90;99.90;;;;;;5075338;28;20510;-71
2023/04/03 07:28:32;;;;;;;4.43;1.80;;;3.10;99.90;;;;;;5074950;28;20466;-71
2023/04/03 07:31:02;;;;;;;5.80;1.73;;;3.20;99.90;;;;;;5075117;28;20450;-71
2023/04/03 07:33:30;;;;;;;6.70;2.63;;;3.30;99.90;;;;;;5074839;28;20460;-71
2023/04/03 07:35:58;;;;;;;2.83;1.90;;;3.50;99.90;;;;;;5075189;28;20473;-71
2023/04/03 07:38:25;;;;;;;2.77;1.77;;;3.60;99.90;;;;;;5075159;28;20532;-71
2023/04/03 07:40:53;;;;;;;3.60;1.83;;;3.70;99.90;;;;;;5074973;28;20458;-72
2023/04/03 07:43:21;;;;;;;3.03;2.00;;;3.60;99.90;;;;;;5074747;28;20490;-71
2023/04/03 07:45:50;;;;;;;2.73;1.90;;;3.50;99.90;;;;;;5074931;28;20573;-72
2023/04/03 07:48:18;;;;;;;3.00;1.40;;;3.50;99.90;;;;;;5075082;28;20466;-70
2023/04/03 07:50:47;;;;;;;6.60;2.10;;;3.50;99.90;;;;;;5075356;28;20490;-71
2023/04/03 07:53:14;;;;;;;3.70;1.73;;;3.60;99.90;;;;;;5075394;28;20961;-71
2023/04/03 07:55:43;;;;;;;3.67;1.80;;;3.70;99.90;;;;;;5075080;28;20867;-71
2023/04/03 07:58:12;;;;;;;4.53;1.90;;;3.80;99.90;;;;;;5074853;28;20473;-72
2023/04/03 08:00:40;;;;;;;3.37;1.63;;;3.90;99.90;;;;;;5075786;28;20842;-72
2023/04/03 08:03:09;;;;;;;3.23;2.03;;;3.90;99.90;;;;;;5074899;28;20486;-71
2023/04/03 08:05:38;;;;;;;6.73;2.17;;;3.80;99.90;;;;;;5075630;28;20490;-70
2023/04/03 08:08:08;;;;;;;3.07;1.67;;;3.90;99.90;;;;;;5075328;28;20864;-71
2023/04/03 08:10:35;;;;;;;4.10;2.40;;;3.80;99.90;;;;;;5075046;28;20544;-72
2023/04/03 08:13:02;;;;;;;5.40;2.13;;;3.80;99.90;;;;;;5074704;28;20449;-72
2023/04/03 08:15:30;;;;;;;3.10;1.70;;;3.70;99.90;;;;;;5074328;28;20446;-71
2023/04/03 08:17:57;;;;;;;4.13;1.80;;;3.80;99.90;;;;;;5075372;28;20501;-72
2023/04/03 08:20:24;;;;;;;4.63;1.90;;;3.80;99.90;;;;;;5075518;28;20482;-73
2023/04/03 08:22:51;;;;;;;2.00;1.80;;;3.80;99.90;;;;;;5075420;28;20902;-73
2023/04/03 08:25:20;;;;;;;2.07;1.30;;;4.00;99.90;;;;;;5075194;28;20476;-71
2023/04/03 08:27:47;;;;;;;2.63;1.30;;;4.10;99.90;;;;;;5075380;28;20458;-71
2023/04/03 08:30:14;;;;;;;2.70;1.53;;;4.30;99.90;;;;;;5075632;28;20456;-71
2023/04/03 08:32:42;;;;;;;7.17;1.93;;;4.40;99.90;;;;;;5074663;28;20541;-70
2023/04/03 08:35:10;;;;;;;3.50;2.20;;;4.50;99.90;;;;;;5074451;28;20466;-72
2023/04/03 08:37:37;;;;;;;3.93;1.70;;;4.60;99.90;;;;;;5074359;28;20527;-70
2023/04/03 08:40:05;;;;;;;2.63;1.70;;;4.70;99.90;;;;;;5074423;28;20532;-70
2023/04/03 08:42:45;;;;;;;2.27;1.30;;;4.80;99.90;;;;;;5074622;28;20915;-71
2023/04/03 08:45:17;;;;;;;4.00;1.60;;;4.80;99.90;;;;;;5074604;28;20782;-72
2023/04/03 08:47:53;;;;;;;3.60;2.17;;;4.90;99.90;;;;;;5074471;28;20475;-70
2023/04/03 08:50:24;;;;;;;3.03;1.43;;;4.90;99.90;;;;;;5074446;28;20492;-71
2023/04/03 08:52:55;;;;;;;3.30;1.37;;;5.00;99.90;;;;;;5074583;28;21065;-71
2023/04/03 08:55:26;;;;;;;2.50;1.70;;;5.10;99.90;;;;;;5074848;28;20484;-72
2023/04/03 08:58:02;;;;;;;1.90;1.37;;;5.10;99.90;;;;;;5074838;28;20470;-72
2023/04/03 09:00:35;;;;;;;5.13;2.03;;;5.20;99.90;;;;;;5074359;28;20467;-71
2023/04/03 09:03:02;;;;;;;3.17;1.60;;;5.20;99.90;;;;;;5074216;28;20540;-71
2023/04/03 09:05:39;;;;;;;4.40;1.63;;;5.20;99.90;;;;;;5073904;28;20454;-71
2023/04/03 09:08:13;;;;;;;5.90;1.50;;;5.30;99.90;;;;;;5074492;28;20438;-71
2023/04/03 09:10:42;;;;;;;4.60;2.20;;;5.30;99.90;;;;;;5074767;28;20447;-71
2023/04/03 09:13:21;;;;;;;5.10;2.07;;;5.10;99.90;;;;;;5074972;28;20589;-71
2023/04/03 09:15:49;;;;;;;4.20;1.73;;;4.90;99.90;;;;;;5075276;28;20462;-71
2023/04/03 09:18:22;;;;;;;5.43;2.40;;;4.80;99.90;;;;;;5075063;28;20536;-71
2023/04/03 09:20:59;;;;;;;4.17;2.03;;;4.70;99.90;;;;;;5075055;28;20449;-71
2023/04/03 09:23:31;;;;;;;6.07;2.60;;;4.60;99.90;;;;;;5075622;28;20442;-71
2023/04/03 09:26:05;;;;;;;3.73;1.70;;;4.50;99.90;;;;;;5077198;28;20472;-71
2023/04/03 09:28:38;;;;;;;2.20;1.77;;;4.60;99.90;;;;;;5078016;28;20445;-71
2023/04/03 09:31:18;;;;;;;6.10;2.00;;;4.70;99.90;;;;;;5078550;28;20449;-72
2023/04/03 09:33:46;;;;;;;2.57;1.63;;;4.70;99.90;;;;;;5078119;28;20767;-71
2023/04/03 09:36:13;;;;;;;2.03;1.43;;;4.80;99.90;;;;;;5078419;28;20465;-72
2023/04/03 09:38:40;;;;;;;3.00;2.00;;;4.80;98.90;;;;;;5078355;28;20454;-72
2023/04/03 09:41:14;;;;;;;2.47;1.43;;;4.80;99.80;;;;;;5077974;28;20549;-71
2023/04/03 09:43:53;;;;;;;2.50;1.40;;;4.90;99.90;;;;;;5077783;28;20460;-70
2023/04/03 09:46:30;;;;;;;3.40;1.63;;;4.80;99.60;;;;;;5077934;28;20476;-71
2023/04/03 09:48:59;;;;;;;2.73;1.40;;;4.80;99.10;;;;;;5078165;28;20442;-72
2023/04/03 09:51:32;;;;;;;3.00;1.30;;;4.80;99.40;;;;;;5077721;28;20450;-70
2023/04/03 09:53:59;;;;;;;4.40;1.77;;;4.70;99.70;;;;;;5077451;28;20468;-71
2023/04/03 09:56:28;;;;;;;5.50;1.83;;;4.90;99.90;;;;;;5077283;28;20485;-71
2023/04/03 09:59:16;;;;;;;3.20;1.73;;;5.10;99.90;;;;;;5077052;28;20465;-71
2023/04/03 10:01:45;;;;;;;4.77;2.70;;;5.50;99.90;;;;;;5076968;28;20439;-72
2023/04/03 10:04:14;;;;;;;5.80;1.60;;;5.80;98.40;;;;;;5077414;28;20434;-71
2023/04/03 10:06:46;;;;;;;4.50;1.60;;;5.90;97.00;;;;;;5077709;28;20525;-71
2023/04/03 10:09:20;;;;;;;10.33;5.77;;;5.90;95.10;;;;;;5077435;28;20541;-72
2023/04/03 10:12:05;;;;;;;13.20;5.13;;;6.10;94.50;;;;;;5077102;28;20481;-71
2023/04/03 10:14:35;;;;;;;5.90;2.20;;;6.30;94.60;;;;;;5077150;28;20872;-72
2023/04/03 10:17:19;;;;;;;3.10;1.80;;;6.40;92.80;;;;;;5076831;28;20520;-71
2023/04/03 10:19:51;;;;;;;3.07;1.83;;;6.50;91.90;;;;;;5077232;28;20450;-71
2023/04/03 10:22:25;;;;;;;2.07;1.20;;;6.60;91.50;;;;;;5076806;28;20447;-72
2023/04/03 10:25:00;;;;;;;1.73;1.30;;;6.70;91.30;;;;;;5076535;28;20452;-72
2023/04/03 10:27:40;;;;;;;3.40;1.50;;;6.70;86.20;;;;;;5076626;28;20476;-71
2023/04/03 10:30:22;;;;;;;3.53;1.00;;;6.70;83.70;;;;;;5076630;28;20452;-71
2023/04/03 10:33:01;;;;;;;3.53;1.30;;;6.90;81.00;;;;;;5076347;28;20950;-71
2023/04/03 10:35:40;;;;;;;2.70;1.77;;;6.90;78.70;;;;;;5076265;28;20481;-71
2023/04/03 10:38:16;;;;;;;8.30;1.50;;;7.00;77.30;;;;;;5075518;28;20438;-71
2023/04/03 10:40:51;;;;;;;2.20;1.40;;;7.10;77.30;;;;;;5075779;28;20890;-71
2023/04/03 10:43:28;;;;;;;2.50;1.70;;;7.10;74.40;;;;;;5075885;28;20444;-71
2023/04/03 10:46:01;;;;;;;3.70;1.30;;;7.40;79.50;;;;;;5076018;28;20442;-71
2023/04/03 10:48:43;;;;;;;3.07;1.73;;;7.40;72.10;;;;;;5076678;28;20875;-71
2023/04/03 10:51:23;;;;;;;1.67;1.20;;;7.50;73.90;;;;;;5076319;28;20446;-71
2023/04/03 10:53:57;;;;;;;1.80;1.40;;;7.40;73.90;;;;;;5076196;28;20443;-71
2023/04/03 10:56:32;;;;;;;1.80;1.27;;;7.60;77.70;;;;;;5076398;28;20438;-71
2023/04/03 10:59:07;;;;;;;1.70;1.33;;;7.70;74.60;;;;;;5076360;28;20464;-71
2023/04/03 11:01:40;;;;;;;6.90;1.83;;;7.80;71.50;;;;;;5075873;28;20883;-70
2023/04/03 11:04:07;;;;;;;3.23;1.80;;;7.90;70.90;;;;;;5076162;28;20470;-70
2023/04/03 11:06:39;;;;;;;4.50;2.07;;;7.70;70.20;;;;;;5075739;28;20795;-71
2023/04/03 11:09:18;;;;;;;3.73;1.90;;;7.80;71.80;;;;;;5075841;28;20456;-72
2023/04/03 11:11:47;;;;;;;2.63;1.30;;;7.60;69.70;;;;;;5075140;28;20538;-72
2023/04/03 11:14:22;;;;;;;3.80;1.50;;;7.50;71.20;;;;;;5075715;28;20946;-71
2023/04/03 11:17:03;;;;;;;2.37;1.33;;;7.40;72.20;;;;;;5075895;28;20484;-71
2023/04/03 11:19:36;;;;;;;3.37;2.00;;;7.40;70.80;;;;;;5075749;28;20845;-71
2023/04/03 11:22:09;;;;;;;3.70;1.53;;;7.30;71.80;;;;;;5075760;28;20529;-70
2023/04/03 11:24:41;;;;;;;3.17;1.50;;;7.20;70.70;;;;;;5075227;28;20450;-70
2023/04/03 11:27:16;;;;;;;3.63;1.80;;;7.00;73.50;;;;;;5077445;28;20520;-70
2023/04/03 11:29:47;;;;;;;1.97;1.30;;;6.90;74.00;;;;;;5077110;28;20529;-72
2023/04/03 11:32:36;;;;;;;4.53;1.60;;;7.00;74.60;;;;;;5075515;28;20453;-71
2023/04/03 11:35:07;;;;;;;1.50;1.20;;;7.00;75.60;;;;;;5075618;28;20907;-72
2023/04/03 11:37:36;;;;;;;2.40;1.27;;;6.80;72.30;;;;;;5076264;28;20902;-70
2023/04/03 11:40:07;;;;;;;1.73;1.20;;;6.70;73.20;;;;;;5077591;28;20482;-72
2023/04/03 11:42:38;;;;;;;2.33;1.60;;;6.70;73.10;;;;;;5075224;28;20442;-71
2023/04/03 11:45:34;;;;;;;2.23;1.33;;;6.70;76.20;;;;;;5075418;28;20447;-73
2023/04/03 11:48:04;;;;;;;3.30;2.00;;;6.70;76.90;;;;;;5075317;28;20501;-73
2023/04/03 11:50:50;;;;;;;3.40;2.20;;;6.90;76.50;;;;;;5075223;28;20439;-71
2023/04/03 11:53:36;;;;;;;3.50;1.57;;;7.20;79.30;;;;;;5074913;28;20446;-71
2023/04/03 11:56:31;;;;;;;1.93;1.70;;;7.30;76.40;;;;;;5075073;28;20438;-71
2023/04/03 11:59:37;;;;;;;3.80;2.20;;;7.30;75.10;;;;;;5075043;28;20454;-70
2023/04/03 12:02:36;;;;;;;3.30;1.80;;;7.00;73.70;;;;;;5012614;28;21060;-70
2023/04/03 12:05:27;;;;;;;5.63;3.60;;;6.60;75.10;;;;;;5012435;28;20463;-71
2023/04/03 12:08:27;;;;;;;2.20;1.50;;;6.50;79.80;;;;;;5065750;28;20556;-70
2023/04/03 12:11:16;;;;;;;2.20;1.53;;;6.40;80.10;;;;;;5073837;28;20458;-69
2023/04/03 12:14:04;;;;;;;3.10;2.00;;;6.30;79.70;;;;;;5073688;28;20523;-70
2023/04/03 12:16:34;;;;;;;2.40;1.40;;;6.40;81.80;;;;;;5074062;28;20438;-70
2023/04/03 12:19:03;;;;;;;67.83;60.53;;;6.50;81.50;;;;;;5074064;28;20454;-70
2023/04/03 12:22:08;;;;;;;1.43;1.33;;;6.60;83.50;;;;;;5074030;28;20449;-70
2023/04/03 12:24:39;;;;;;;5.40;2.87;;;6.60;82.20;;;;;;5074010;28;20919;-68
2023/04/03 12:27:26;;;;;;;2.63;1.47;;;6.10;80.80;;;;;;5073623;28;20474;-70
2023/04/03 12:30:01;;;;;;;2.83;1.80;;;6.10;83.80;;;;;;5074201;28;20531;-68
2023/04/03 12:32:42;;;;;;;2.13;1.53;;;6.10;85.70;;;;;;5073351;28;20449;-68
2023/04/03 12:35:22;;;;;;;2.30;1.30;;;6.20;85.40;;;;;;5073661;28;20902;-68
2023/04/03 12:38:20;;;;;;;1.47;1.23;;;6.30;81.90;;;;;;5075454;28;20446;-68
2023/04/03 12:40:54;;;;;;;2.03;1.73;;;6.40;78.10;;;;;;5050160;28;20454;-69
2023/04/03 12:43:42;;;;;;;3.27;1.20;;;6.80;79.20;;;;;;5074915;28;20445;-69
2023/04/03 12:46:15;;;;;;;1.97;1.20;;;7.40;73.60;;;;;;5074331;28;20982;-69
2023/04/03 12:48:49;;;;;;;2.30;1.13;;;7.60;72.30;;;;;;5074269;28;20462;-67
2023/04/03 12:51:19;;;;;;;1.97;1.00;;;7.50;68.90;;;;;;5074276;28;20438;-68
2023/04/03 12:53:46;;;;;;;2.57;1.13;;;7.40;70.60;;;;;;5074626;28;20781;-69
2023/04/03 12:56:23;;;;;;;1.90;1.57;;;7.20;69.20;;;;;;5074837;28;20454;-69
2023/04/03 12:58:50;;;;;;;4.70;1.53;;;7.10;71.60;;;;;;5074638;28;20457;-67
2023/04/03 13:01:21;;;;;;;3.57;1.47;;;7.00;71.70;;;;;;5077034;28;20450;-69
2023/04/03 13:03:50;;;;;;;2.27;2.07;;;6.80;72.90;;;;;;5078409;28;20571;-69
2023/04/03 13:06:22;;;;;;;3.20;1.30;;;6.60;73.40;;;;;;5078607;28;20453;-69
2023/04/03 13:08:57;;;;;;;1.30;1.03;;;6.60;76.00;;;;;;5079306;28;20458;-70
2023/04/03 13:11:28;;;;;;;3.63;1.57;;;6.50;77.50;;;;;;5079150;28;20453;-67
2023/04/03 13:13:59;;;;;;;2.50;1.63;;;6.40;76.20;;;;;;5079376;28;20462;-69